sensor_id;sensor_type;location;lat;lon;timestamp;pressure;altitude;pressure_sealevel;temperature;humidity
77153;BME280;66124;51.146;17.072;2023-03-23T00:05:16;99550.86;;;10.79;65.32
77153;BME280;66124;51.146;17.072;2023-03-23T00:07:46;99552.17;;;10.73;65.43
77153;BME280;66124;51.146;17.072;2023-03-23T00:10:15;99547.45;;;10.69;65.45
77153;BME280;66124;51.146;17.072;2023-03-23T00:12:44;99532.23;;;10.57;65.70
77153;BME280;66124;51.146;17.072;2023-03-23T00:15:14;99543.02;;;10.64;65.50
77153;BME280;66124;51.146;17.072;2023-03-23T00:17:45;99548.86;;;10.62;65.72
77153;BME280;66124;51.146;17.072;2023-03-23T00:20:14;99547.39;;;10.62;66.02
77153;BME280;66124;51.146;17.072;2023-03-23T00:22:44;99547.44;;;10.63;66.22
77153;BME280;66124;51.146;17.072;2023-03-23T00:25:13;99543.55;;;10.65;65.80
77153;BME280;66124;51.146;17.072;2023-03-23T00:27:43;99545.88;;;10.67;65.98
77153;BME280;66124;51.146;17.072;2023-03-23T00:30:13;99544.99;;;10.70;65.90
77153;BME280;66124;51.146;17.072;2023-03-23T00:32:42;99542.37;;;10.71;65.92
77153;BME280;66124;51.146;17.072;2023-03-23T00:35:11;99546.05;;;10.71;66.07
77153;BME280;66124;51.146;17.072;2023-03-23T00:37:41;99536.09;;;10.72;66.01
77153;BME280;66124;51.146;17.072;2023-03-23T00:40:12;99527.88;;;10.72;65.99
77153;BME280;66124;51.146;17.072;2023-03-23T00:42:41;99531.37;;;10.71;66.03
77153;BME280;66124;51.146;17.072;2023-03-23T00:45:11;99534.81;;;10.70;66.07
77153;BME280;66124;51.146;17.072;2023-03-23T00:47:40;99538.08;;;10.68;66.27
77153;BME280;66124;51.146;17.072;2023-03-23T00:50:11;99537.98;;;10.66;66.18
77153;BME280;66124;51.146;17.072;2023-03-23T00:52:40;99540.71;;;10.65;66.16
77153;BME280;66124;51.146;17.072;2023-03-23T00:55:10;99536.73;;;10.64;66.33
77153;BME280;66124;51.146;17.072;2023-03-23T00:57:39;99534.13;;;10.64;66.21
77153;BME280;66124;51.146;17.072;2023-03-23T01:00:11;99530.16;;;10.64;66.31
77153;BME280;66124;51.146;17.072;2023-03-23T01:02:41;99527.20;;;10.64;66.27
77153;BME280;66124;51.146;17.072;2023-03-23T01:05:11;99519.73;;;10.63;66.38
77153;BME280;66124;51.146;17.072;2023-03-23T01:07:41;99520.87;;;10.64;66.50
77153;BME280;66124;51.146;17.072;2023-03-23T01:10:12;99522.81;;;10.65;66.32
77153;BME280;66124;51.146;17.072;2023-03-23T01:12:40;99517.59;;;10.66;66.44
77153;BME280;66124;51.146;17.072;2023-03-23T01:15:09;99520.23;;;10.67;66.25
77153;BME280;66124;51.146;17.072;2023-03-23T01:17:37;99524.45;;;10.67;66.35
77153;BME280;66124;51.146;17.072;2023-03-23T01:22:48;99512.25;;;10.69;66.38
77153;BME280;66124;51.146;17.072;2023-03-23T01:25:17;99517.52;;;10.68;66.32
77153;BME280;66124;51.146;17.072;2023-03-23T01:27:47;99513.50;;;10.67;66.53
77153;BME280;66124;51.146;17.072;2023-03-23T01:30:16;99509.85;;;10.69;66.26
77153;BME280;66124;51.146;17.072;2023-03-23T01:32:45;99513.83;;;10.69;66.54
77153;BME280;66124;51.146;17.072;2023-03-23T01:35:17;99510.63;;;10.69;66.28
77153;BME280;66124;51.146;17.072;2023-03-23T01:37:45;99508.33;;;10.71;66.15
77153;BME280;66124;51.146;17.072;2023-03-23T01:40:15;99503.89;;;10.70;66.07
77153;BME280;66124;51.146;17.072;2023-03-23T01:42:44;99498.19;;;10.73;65.96
77153;BME280;66124;51.146;17.072;2023-03-23T01:45:24;99495.48;;;10.76;66.46
77153;BME280;66124;51.146;17.072;2023-03-23T01:47:57;99490.98;;;10.80;66.20
77153;BME280;66124;51.146;17.072;2023-03-23T01:50:31;99487.33;;;10.81;66.13
77153;BME280;66124;51.146;17.072;2023-03-23T01:53:06;99490.17;;;10.83;65.91
77153;BME280;66124;51.146;17.072;2023-03-23T01:55:39;99490.84;;;10.85;66.03
77153;BME280;66124;51.146;17.072;2023-03-23T01:58:10;99490.44;;;10.86;65.93
77153;BME280;66124;51.146;17.072;2023-03-23T02:00:41;99481.84;;;10.86;65.93
77153;BME280;66124;51.146;17.072;2023-03-23T02:03:11;99480.86;;;10.86;65.96
77153;BME280;66124;51.146;17.072;2023-03-23T02:05:42;99478.87;;;10.85;66.01
77153;BME280;66124;51.146;17.072;2023-03-23T02:08:13;99475.50;;;10.84;66.17
77153;BME280;66124;51.146;17.072;2023-03-23T02:10:43;99472.61;;;10.83;65.88
77153;BME280;66124;51.146;17.072;2023-03-23T02:13:13;99470.09;;;10.83;65.76
77153;BME280;66124;51.146;17.072;2023-03-23T02:15:50;99467.42;;;10.84;65.68
77153;BME280;66124;51.146;17.072;2023-03-23T02:18:31;99469.81;;;10.83;65.84
77153;BME280;66124;51.146;17.072;2023-03-23T02:21:19;99468.59;;;10.83;65.78
77153;BME280;66124;51.146;17.072;2023-03-23T02:24:12;99466.73;;;10.83;66.21
77153;BME280;66124;51.146;17.072;2023-03-23T02:26:55;99462.42;;;10.84;65.93
77153;BME280;66124;51.146;17.072;2023-03-23T02:29:39;99460.81;;;10.84;65.61
77153;BME280;66124;51.146;17.072;2023-03-23T02:32:19;99464.55;;;10.85;65.98
77153;BME280;66124;51.146;17.072;2023-03-23T02:41:02;99452.38;;;10.91;66.16
77153;BME280;66124;51.146;17.072;2023-03-23T02:43:35;99449.63;;;10.88;65.88
77153;BME280;66124;51.146;17.072;2023-03-23T02:46:09;99452.13;;;10.90;65.91
77153;BME280;66124;51.146;17.072;2023-03-23T02:48:40;99452.33;;;10.90;66.03
77153;BME280;66124;51.146;17.072;2023-03-23T02:51:11;99448.92;;;10.89;66.15
77153;BME280;66124;51.146;17.072;2023-03-23T02:53:44;99452.30;;;10.89;65.87
77153;BME280;66124;51.146;17.072;2023-03-23T02:56:15;99450.99;;;10.88;65.39
77153;BME280;66124;51.146;17.072;2023-03-23T02:58:45;99447.63;;;10.88;65.67
77153;BME280;66124;51.146;17.072;2023-03-23T03:04:35;99447.14;;;10.88;65.62
77153;BME280;66124;51.146;17.072;2023-03-23T03:07:26;99453.80;;;10.90;65.52
77153;BME280;66124;51.146;17.072;2023-03-23T03:10:01;99453.11;;;10.91;65.96
77153;BME280;66124;51.146;17.072;2023-03-23T03:12:38;99455.11;;;10.93;65.34
77153;BME280;66124;51.146;17.072;2023-03-23T03:15:17;99445.13;;;10.95;65.64
77153;BME280;66124;51.146;17.072;2023-03-23T03:17:53;99431.73;;;10.93;65.52
77153;BME280;66124;51.146;17.072;2023-03-23T03:20:27;99441.49;;;11.03;65.49
77153;BME280;66124;51.146;17.072;2023-03-23T03:22:58;99437.39;;;11.07;65.47
77153;BME280;66124;51.146;17.072;2023-03-23T03:25:29;99434.23;;;11.11;65.21
77153;BME280;66124;51.146;17.072;2023-03-23T03:27:59;99431.15;;;11.15;65.09
77153;BME280;66124;51.146;17.072;2023-03-23T03:30:31;99428.80;;;11.20;64.79
77153;BME280;66124;51.146;17.072;2023-03-23T03:33:04;99428.52;;;11.25;64.77
77153;BME280;66124;51.146;17.072;2023-03-23T03:35:37;99423.23;;;11.30;64.62
77153;BME280;66124;51.146;17.072;2023-03-23T03:38:09;99421.52;;;11.35;64.38
77153;BME280;66124;51.146;17.072;2023-03-23T03:40:39;99420.72;;;11.40;64.17
77153;BME280;66124;51.146;17.072;2023-03-23T03:43:08;99420.10;;;11.46;63.80
77153;BME280;66124;51.146;17.072;2023-03-23T03:45:38;99420.70;;;11.50;63.93
77153;BME280;66124;51.146;17.072;2023-03-23T03:48:07;99414.68;;;11.54;63.62
77153;BME280;66124;51.146;17.072;2023-03-23T03:50:37;99416.27;;;11.58;63.71
77153;BME280;66124;51.146;17.072;2023-03-23T03:53:05;99414.23;;;11.61;63.63
77153;BME280;66124;51.146;17.072;2023-03-23T04:03:07;99417.74;;;11.71;63.26
77153;BME280;66124;51.146;17.072;2023-03-23T04:05:36;99414.16;;;11.69;63.03
77153;BME280;66124;51.146;17.072;2023-03-23T04:08:06;99417.71;;;11.68;62.63
77153;BME280;66124;51.146;17.072;2023-03-23T04:10:35;99414.09;;;11.69;62.51
77153;BME280;66124;51.146;17.072;2023-03-23T04:13:04;99411.17;;;11.71;62.43
77153;BME280;66124;51.146;17.072;2023-03-23T04:15:35;99411.97;;;11.73;62.31
77153;BME280;66124;51.146;17.072;2023-03-23T04:18:04;99413.59;;;11.77;62.63
77153;BME280;66124;51.146;17.072;2023-03-23T04:20:34;99419.71;;;11.81;62.19
77153;BME280;66124;51.146;17.072;2023-03-23T04:23:03;99422.84;;;11.84;62.10
77153;BME280;66124;51.146;17.072;2023-03-23T04:25:33;99418.61;;;11.88;61.94
77153;BME280;66124;51.146;17.072;2023-03-23T04:28:02;99417.13;;;11.91;61.67
77153;BME280;66124;51.146;17.072;2023-03-23T04:30:32;99417.81;;;11.95;61.74
77153;BME280;66124;51.146;17.072;2023-03-23T04:33:01;99420.20;;;11.98;61.35
77153;BME280;66124;51.146;17.072;2023-03-23T04:35:31;99420.43;;;12.02;61.26
77153;BME280;66124;51.146;17.072;2023-03-23T04:38:00;99417.52;;;12.06;61.19
77153;BME280;66124;51.146;17.072;2023-03-23T04:40:29;99417.85;;;12.10;61.07
77153;BME280;66124;51.146;17.072;2023-03-23T04:42:58;99417.05;;;12.13;60.97
77153;BME280;66124;51.146;17.072;2023-03-23T04:45:28;99412.21;;;12.18;60.73
77153;BME280;66124;51.146;17.072;2023-03-23T04:47:57;99417.80;;;12.22;60.73
77153;BME280;66124;51.146;17.072;2023-03-23T04:50:28;99418.08;;;12.25;60.38
77153;BME280;66124;51.146;17.072;2023-03-23T04:52:58;99415.26;;;12.29;59.93
77153;BME280;66124;51.146;17.072;2023-03-23T04:55:28;99413.83;;;12.32;59.94
77153;BME280;66124;51.146;17.072;2023-03-23T04:57:58;99403.46;;;12.27;59.99
77153;BME280;66124;51.146;17.072;2023-03-23T05:00:28;99414.29;;;12.37;59.97
77153;BME280;66124;51.146;17.072;2023-03-23T05:02:57;99412.61;;;12.39;60.14
77153;BME280;66124;51.146;17.072;2023-03-23T05:05:28;99404.77;;;12.42;59.75
77153;BME280;66124;51.146;17.072;2023-03-23T05:07:57;99399.81;;;12.43;59.75
77153;BME280;66124;51.146;17.072;2023-03-23T05:10:27;99393.94;;;12.46;59.98
77153;BME280;66124;51.146;17.072;2023-03-23T05:12:56;99381.48;;;12.38;60.00
77153;BME280;66124;51.146;17.072;2023-03-23T05:15:24;99396.48;;;12.49;59.62
77153;BME280;66124;51.146;17.072;2023-03-23T05:20:36;99399.75;;;12.55;59.68
77153;BME280;66124;51.146;17.072;2023-03-23T05:23:06;99399.02;;;12.54;59.05
77153;BME280;66124;51.146;17.072;2023-03-23T05:25:36;99396.06;;;12.56;59.20
77153;BME280;66124;51.146;17.072;2023-03-23T05:28:05;99392.81;;;12.58;58.95
77153;BME280;66124;51.146;17.072;2023-03-23T05:30:35;99391.52;;;12.61;59.04
77153;BME280;66124;51.146;17.072;2023-03-23T05:33:06;99394.98;;;12.64;58.60
77153;BME280;66124;51.146;17.072;2023-03-23T05:35:35;99394.30;;;12.68;58.54
77153;BME280;66124;51.146;17.072;2023-03-23T05:38:04;99395.53;;;12.73;58.29
77153;BME280;66124;51.146;17.072;2023-03-23T05:40:34;99392.33;;;12.77;58.37
77153;BME280;66124;51.146;17.072;2023-03-23T05:43:03;99392.02;;;12.80;58.34
77153;BME280;66124;51.146;17.072;2023-03-23T05:45:32;99394.19;;;12.81;58.16
77153;BME280;66124;51.146;17.072;2023-03-23T05:48:02;99397.03;;;12.86;57.69
77153;BME280;66124;51.146;17.072;2023-03-23T05:50:31;99399.94;;;12.89;57.94
77153;BME280;66124;51.146;17.072;2023-03-23T05:53:01;99400.42;;;12.92;57.61
77153;BME280;66124;51.146;17.072;2023-03-23T05:55:30;99402.35;;;12.94;58.02
77153;BME280;66124;51.146;17.072;2023-03-23T05:58:00;99405.02;;;12.97;57.75
77153;BME280;66124;51.146;17.072;2023-03-23T06:00:30;99403.39;;;12.98;57.55
77153;BME280;66124;51.146;17.072;2023-03-23T06:02:59;99398.11;;;13.00;57.56
77153;BME280;66124;51.146;17.072;2023-03-23T06:05:29;99398.30;;;13.03;57.66
77153;BME280;66124;51.146;17.072;2023-03-23T06:07:58;99394.52;;;13.06;57.21
77153;BME280;66124;51.146;17.072;2023-03-23T06:10:28;99393.14;;;13.09;57.01
77153;BME280;66124;51.146;17.072;2023-03-23T06:12:57;99389.90;;;13.14;57.18
77153;BME280;66124;51.146;17.072;2023-03-23T06:15:26;99393.96;;;13.18;57.02
77153;BME280;66124;51.146;17.072;2023-03-23T06:17:57;99395.42;;;13.24;56.92
77153;BME280;66124;51.146;17.072;2023-03-23T06:20:27;99384.79;;;13.31;56.89
77153;BME280;66124;51.146;17.072;2023-03-23T06:22:56;99386.91;;;13.40;56.81
77153;BME280;66124;51.146;17.072;2023-03-23T06:25:25;99387.91;;;13.49;56.54
77153;BME280;66124;51.146;17.072;2023-03-23T06:27:55;99386.98;;;13.58;56.25
77153;BME280;66124;51.146;17.072;2023-03-23T06:30:24;99386.98;;;13.66;56.26
77153;BME280;66124;51.146;17.072;2023-03-23T06:32:52;99382.11;;;13.75;55.91
77153;BME280;66124;51.146;17.072;2023-03-23T06:38:04;99378.38;;;13.96;55.57
77153;BME280;66124;51.146;17.072;2023-03-23T06:40:34;99376.00;;;14.04;55.57
77153;BME280;66124;51.146;17.072;2023-03-23T06:43:04;99378.40;;;14.14;55.46
77153;BME280;66124;51.146;17.072;2023-03-23T06:45:34;99372.25;;;14.23;55.22
77153;BME280;66124;51.146;17.072;2023-03-23T06:48:04;99372.45;;;14.31;54.70
77153;BME280;66124;51.146;17.072;2023-03-23T06:50:33;99379.34;;;14.39;54.65
77153;BME280;66124;51.146;17.072;2023-03-23T06:53:02;99377.13;;;14.45;54.38
77153;BME280;66124;51.146;17.072;2023-03-23T06:55:32;99377.41;;;14.51;54.29
77153;BME280;66124;51.146;17.072;2023-03-23T06:58:01;99376.02;;;14.57;53.89
77153;BME280;66124;51.146;17.072;2023-03-23T07:00:31;99372.20;;;14.61;53.54
77153;BME280;66124;51.146;17.072;2023-03-23T07:03:00;99372.04;;;14.67;53.70
77153;BME280;66124;51.146;17.072;2023-03-23T07:05:29;99375.08;;;14.75;53.74
77153;BME280;66124;51.146;17.072;2023-03-23T07:07:59;99371.96;;;14.84;53.64
77153;BME280;66124;51.146;17.072;2023-03-23T07:10:29;99377.98;;;14.93;53.50
77153;BME280;66124;51.146;17.072;2023-03-23T07:12:58;99375.30;;;15.00;53.27
77153;BME280;66124;51.146;17.072;2023-03-23T07:15:28;99374.41;;;15.05;53.19
77153;BME280;66124;51.146;17.072;2023-03-23T07:17:57;99378.23;;;15.07;52.88
77153;BME280;66124;51.146;17.072;2023-03-23T07:20:27;99383.88;;;15.07;52.80
77153;BME280;66124;51.146;17.072;2023-03-23T07:22:56;99385.98;;;15.09;52.81
77153;BME280;66124;51.146;17.072;2023-03-23T07:25:25;99381.17;;;15.10;52.90
77153;BME280;66124;51.146;17.072;2023-03-23T07:27:55;99379.98;;;15.11;52.59
77153;BME280;66124;51.146;17.072;2023-03-23T07:30:24;99374.91;;;15.11;52.75
77153;BME280;66124;51.146;17.072;2023-03-23T07:32:54;99374.52;;;15.11;52.62
77153;BME280;66124;51.146;17.072;2023-03-23T07:35:24;99368.40;;;15.10;52.47
77153;BME280;66124;51.146;17.072;2023-03-23T07:37:53;99371.25;;;15.10;52.39
77153;BME280;66124;51.146;17.072;2023-03-23T07:40:23;99364.60;;;15.10;52.38
77153;BME280;66124;51.146;17.072;2023-03-23T07:42:55;99365.80;;;15.11;52.38
77153;BME280;66124;51.146;17.072;2023-03-23T07:45:25;99368.84;;;15.13;52.24
77153;BME280;66124;51.146;17.072;2023-03-23T07:47:53;99367.43;;;15.19;52.35
77153;BME280;66124;51.146;17.072;2023-03-23T07:50:21;99372.86;;;15.29;52.30
77153;BME280;66124;51.146;17.072;2023-03-23T07:55:56;99370.80;;;15.60;52.14
77153;BME280;66124;51.146;17.072;2023-03-23T07:58:26;99372.16;;;15.72;52.04
77153;BME280;66124;51.146;17.072;2023-03-23T08:00:56;99365.46;;;15.82;51.79
77153;BME280;66124;51.146;17.072;2023-03-23T08:03:25;99362.80;;;15.86;51.42
77153;BME280;66124;51.146;17.072;2023-03-23T08:05:54;99359.55;;;15.88;51.42
77153;BME280;66124;51.146;17.072;2023-03-23T08:08:26;99361.05;;;15.86;51.10
77153;BME280;66124;51.146;17.072;2023-03-23T08:10:55;99367.14;;;15.82;51.40
77153;BME280;66124;51.146;17.072;2023-03-23T08:13:24;99367.65;;;15.79;51.47
77153;BME280;66124;51.146;17.072;2023-03-23T08:15:54;99369.27;;;15.75;51.80
77153;BME280;66124;51.146;17.072;2023-03-23T08:18:23;99367.73;;;15.73;51.87
77153;BME280;66124;51.146;17.072;2023-03-23T08:20:53;99359.30;;;15.75;51.89
77153;BME280;66124;51.146;17.072;2023-03-23T08:23:22;99355.55;;;15.81;51.82
77153;BME280;66124;51.146;17.072;2023-03-23T08:25:52;99349.71;;;15.88;51.85
77153;BME280;66124;51.146;17.072;2023-03-23T08:28:21;99340.95;;;15.95;51.86
77153;BME280;66124;51.146;17.072;2023-03-23T08:30:51;99336.86;;;16.00;51.80
77153;BME280;66124;51.146;17.072;2023-03-23T08:33:20;99340.45;;;16.05;51.72
77153;BME280;66124;51.146;17.072;2023-03-23T08:35:57;99338.23;;;16.10;51.64
77153;BME280;66124;51.146;17.072;2023-03-23T08:38:27;99341.16;;;16.16;51.60
77153;BME280;66124;51.146;17.072;2023-03-23T08:40:59;99343.66;;;16.22;51.18
77153;BME280;66124;51.146;17.072;2023-03-23T08:43:29;99349.44;;;16.28;51.13
77153;BME280;66124;51.146;17.072;2023-03-23T08:45:59;99351.40;;;16.34;51.34
77153;BME280;66124;51.146;17.072;2023-03-23T08:48:29;99350.35;;;16.42;50.72
77153;BME280;66124;51.146;17.072;2023-03-23T08:50:59;99358.05;;;16.52;50.47
77153;BME280;66124;51.146;17.072;2023-03-23T08:53:28;99359.17;;;16.66;49.87
77153;BME280;66124;51.146;17.072;2023-03-23T08:56:03;99355.57;;;16.80;48.19
77153;BME280;66124;51.146;17.072;2023-03-23T08:58:33;99342.39;;;16.85;47.97
77153;BME280;66124;51.146;17.072;2023-03-23T09:01:03;99356.83;;;17.07;47.32
77153;BME280;66124;51.146;17.072;2023-03-23T09:03:33;99360.30;;;17.18;47.17
77153;BME280;66124;51.146;17.072;2023-03-23T09:06:02;99359.81;;;17.24;46.83
77153;BME280;66124;51.146;17.072;2023-03-23T09:17:19;99366.82;;;17.28;46.73
77153;BME280;66124;51.146;17.072;2023-03-23T09:19:49;99373.53;;;17.29;46.58
77153;BME280;66124;51.146;17.072;2023-03-23T09:22:18;99375.27;;;17.28;46.47
77153;BME280;66124;51.146;17.072;2023-03-23T09:24:47;99371.02;;;17.26;46.93
77153;BME280;66124;51.146;17.072;2023-03-23T09:27:17;99368.89;;;17.22;47.56
77153;BME280;66124;51.146;17.072;2023-03-23T09:29:48;99368.15;;;17.19;47.87
77153;BME280;66124;51.146;17.072;2023-03-23T09:32:17;99365.86;;;17.19;48.25
77153;BME280;66124;51.146;17.072;2023-03-23T09:34:47;99369.59;;;17.19;47.93
77153;BME280;66124;51.146;17.072;2023-03-23T09:37:16;99366.22;;;17.21;47.99
77153;BME280;66124;51.146;17.072;2023-03-23T09:39:46;99367.02;;;17.25;47.79
77153;BME280;66124;51.146;17.072;2023-03-23T09:42:33;99372.73;;;17.29;47.61
77153;BME280;66124;51.146;17.072;2023-03-23T09:45:12;99373.69;;;17.35;47.79
77153;BME280;66124;51.146;17.072;2023-03-23T09:47:54;99379.02;;;17.42;47.62
77153;BME280;66124;51.146;17.072;2023-03-23T09:50:28;99377.26;;;17.46;47.55
77153;BME280;66124;51.146;17.072;2023-03-23T09:53:00;99380.67;;;17.50;47.46
77153;BME280;66124;51.146;17.072;2023-03-23T09:55:30;99378.75;;;17.55;47.49
77153;BME280;66124;51.146;17.072;2023-03-23T09:58:10;99378.59;;;17.63;47.24
77153;BME280;66124;51.146;17.072;2023-03-23T10:00:44;99378.94;;;17.72;47.22
77153;BME280;66124;51.146;17.072;2023-03-23T10:03:18;99380.44;;;17.81;47.13
77153;BME280;66124;51.146;17.072;2023-03-23T10:05:50;99379.36;;;17.88;46.86
77153;BME280;66124;51.146;17.072;2023-03-23T10:08:22;99373.73;;;17.94;46.30
77153;BME280;66124;51.146;17.072;2023-03-23T10:10:53;99378.23;;;17.96;46.00
77153;BME280;66124;51.146;17.072;2023-03-23T10:13:35;99368.98;;;17.98;45.67
77153;BME280;66124;51.146;17.072;2023-03-23T10:16:12;99370.49;;;18.08;45.71
77153;BME280;66124;51.146;17.072;2023-03-23T10:18:46;99372.45;;;18.20;45.52
77153;BME280;66124;51.146;17.072;2023-03-23T10:21:19;99376.97;;;18.32;45.26
77153;BME280;66124;51.146;17.072;2023-03-23T10:23:56;99379.95;;;18.41;44.96
77153;BME280;66124;51.146;17.072;2023-03-23T10:26:43;99375.30;;;18.48;44.63
77153;BME280;66124;51.146;17.072;2023-03-23T10:29:14;99365.31;;;18.48;43.87
77153;BME280;66124;51.146;17.072;2023-03-23T10:37:02;99378.99;;;18.49;43.73
77153;BME280;66124;51.146;17.072;2023-03-23T10:39:41;99368.88;;;18.43;43.52
77153;BME280;66124;51.146;17.072;2023-03-23T10:42:12;99369.59;;;18.35;43.37
77153;BME280;66124;51.146;17.072;2023-03-23T10:44:41;99386.88;;;18.26;43.50
77153;BME280;66124;51.146;17.072;2023-03-23T10:47:10;99385.27;;;18.20;43.73
77153;BME280;66124;51.146;17.072;2023-03-23T10:49:43;99388.14;;;18.15;43.97
77153;BME280;66124;51.146;17.072;2023-03-23T10:52:25;99391.52;;;18.13;44.20
77153;BME280;66124;51.146;17.072;2023-03-23T10:55:01;99393.98;;;18.09;44.40
77153;BME280;66124;51.146;17.072;2023-03-23T10:57:33;99393.63;;;18.10;44.63
77153;BME280;66124;51.146;17.072;2023-03-23T11:00:06;99391.61;;;18.20;44.57
77153;BME280;66124;51.146;17.072;2023-03-23T11:02:40;99397.92;;;18.40;44.37
77153;BME280;66124;51.146;17.072;2023-03-23T11:05:18;99397.83;;;18.62;44.20
77153;BME280;66124;51.146;17.072;2023-03-23T11:07:51;99387.19;;;18.94;43.66
77153;BME280;66124;51.146;17.072;2023-03-23T11:10:25;99391.19;;;19.25;43.26
77153;BME280;66124;51.146;17.072;2023-03-23T11:12:58;99394.52;;;19.44;42.77
77153;BME280;66124;51.146;17.072;2023-03-23T11:15:30;99400.19;;;19.45;42.32
77153;BME280;66124;51.146;17.072;2023-03-23T11:18:03;99393.91;;;19.35;42.63
77153;BME280;66124;51.146;17.072;2023-03-23T11:20:36;99395.67;;;19.24;42.42
77153;BME280;66124;51.146;17.072;2023-03-23T11:23:21;99404.70;;;19.14;42.46
77153;BME280;66124;51.146;17.072;2023-03-23T11:25:58;99401.96;;;19.09;42.45
77153;BME280;66124;51.146;17.072;2023-03-23T11:28:31;99405.16;;;19.08;42.20
77153;BME280;66124;51.146;17.072;2023-03-23T11:31:03;99387.91;;;18.96;42.05
77153;BME280;66124;51.146;17.072;2023-03-23T11:33:41;99400.70;;;18.99;42.22
77153;BME280;66124;51.146;17.072;2023-03-23T11:36:13;99401.14;;;18.88;42.00
77153;BME280;66124;51.146;17.072;2023-03-23T11:38:44;99407.87;;;18.71;42.01
77153;BME280;66124;51.146;17.072;2023-03-23T11:41:17;99410.27;;;18.60;42.19
77153;BME280;66124;51.146;17.072;2023-03-23T11:43:50;99407.63;;;18.46;42.27
77153;BME280;66124;51.146;17.072;2023-03-23T11:46:29;99410.55;;;18.36;42.60
77153;BME280;66124;51.146;17.072;2023-03-23T11:49:00;99417.59;;;18.31;42.63
77153;BME280;66124;51.146;17.072;2023-03-23T11:56:39;99408.42;;;18.34;43.29
77153;BME280;66124;51.146;17.072;2023-03-23T11:59:12;99406.02;;;18.33;43.39
77153;BME280;66124;51.146;17.072;2023-03-23T12:01:48;99403.80;;;18.35;43.41
77153;BME280;66124;51.146;17.072;2023-03-23T12:04:32;99403.61;;;18.33;43.26
77153;BME280;66124;51.146;17.072;2023-03-23T12:07:13;99413.80;;;18.29;43.19
77153;BME280;66124;51.146;17.072;2023-03-23T12:09:51;99419.45;;;18.22;43.14
77153;BME280;66124;51.146;17.072;2023-03-23T12:12:31;99410.63;;;18.12;43.56
77153;BME280;66124;51.146;17.072;2023-03-23T12:15:10;99413.35;;;18.05;43.83
77153;BME280;66124;51.146;17.072;2023-03-23T12:17:48;99411.55;;;17.97;43.74
77153;BME280;66124;51.146;17.072;2023-03-23T12:20:28;99413.86;;;17.91;44.06
77153;BME280;66124;51.146;17.072;2023-03-23T12:23:08;99413.90;;;17.89;44.14
77153;BME280;66124;51.146;17.072;2023-03-23T12:25:58;99418.61;;;17.91;44.38
77153;BME280;66124;51.146;17.072;2023-03-23T12:28:40;99415.52;;;17.95;44.54
77153;BME280;66124;51.146;17.072;2023-03-23T12:31:18;99414.90;;;17.97;44.47
77153;BME280;66124;51.146;17.072;2023-03-23T12:33:57;99421.15;;;18.00;44.80
77153;BME280;66124;51.146;17.072;2023-03-23T12:36:40;99414.65;;;18.02;44.76
77153;BME280;66124;51.146;17.072;2023-03-23T12:39:42;99415.83;;;18.02;44.94
77153;BME280;66124;51.146;17.072;2023-03-23T12:42:23;99416.27;;;18.03;45.03
77153;BME280;66124;51.146;17.072;2023-03-23T12:44:57;99416.02;;;18.04;45.09
77153;BME280;66124;51.146;17.072;2023-03-23T12:47:35;99411.70;;;18.05;45.26
77153;BME280;66124;51.146;17.072;2023-03-23T12:50:13;99413.16;;;18.07;45.13
77153;BME280;66124;51.146;17.072;2023-03-23T12:52:49;99407.98;;;18.05;45.19
77153;BME280;66124;51.146;17.072;2023-03-23T12:55:26;99409.45;;;18.03;45.19
77153;BME280;66124;51.146;17.072;2023-03-23T12:57:59;99410.04;;;18.04;45.36
77153;BME280;66124;51.146;17.072;2023-03-23T13:00:37;99413.41;;;18.05;45.40
77153;BME280;66124;51.146;17.072;2023-03-23T13:03:13;99418.83;;;18.07;45.48
77153;BME280;66124;51.146;17.072;2023-03-23T13:05:46;99411.38;;;18.03;45.60
77153;BME280;66124;51.146;17.072;2023-03-23T13:08:17;99414.10;;;18.00;45.68
77153;BME280;66124;51.146;17.072;2023-03-23T13:18:42;99407.82;;;18.01;45.88
77153;BME280;66124;51.146;17.072;2023-03-23T13:21:20;99410.55;;;18.05;46.03
77153;BME280;66124;51.146;17.072;2023-03-23T13:23:55;99414.14;;;18.07;45.80
77153;BME280;66124;51.146;17.072;2023-03-23T13:26:26;99414.19;;;18.07;46.03
77153;BME280;66124;51.146;17.072;2023-03-23T13:29:00;99411.43;;;18.09;45.94
77153;BME280;66124;51.146;17.072;2023-03-23T13:31:31;99399.23;;;18.09;45.91
77153;BME280;66124;51.146;17.072;2023-03-23T13:34:04;99405.47;;;18.09;45.82
77153;BME280;66124;51.146;17.072;2023-03-23T13:36:37;99402.77;;;18.07;46.05
77153;BME280;66124;51.146;17.072;2023-03-23T13:39:16;99402.63;;;18.05;46.08
77153;BME280;66124;51.146;17.072;2023-03-23T13:42:01;99402.86;;;18.02;45.98
77153;BME280;66124;51.146;17.072;2023-03-23T13:44:42;99409.42;;;18.03;46.19
77153;BME280;66124;51.146;17.072;2023-03-23T13:47:25;99411.73;;;18.03;46.27
77153;BME280;66124;51.146;17.072;2023-03-23T13:49:58;99405.71;;;18.03;46.39
77153;BME280;66124;51.146;17.072;2023-03-23T13:52:38;99406.02;;;18.06;46.47
77153;BME280;66124;51.146;17.072;2023-03-23T13:55:30;99402.94;;;18.08;46.57
77153;BME280;66124;51.146;17.072;2023-03-23T13:58:11;99407.06;;;18.09;46.67
77153;BME280;66124;51.146;17.072;2023-03-23T14:00:49;99410.19;;;18.07;46.76
77153;BME280;66124;51.146;17.072;2023-03-23T14:03:25;99403.65;;;18.05;46.85
77153;BME280;66124;51.146;17.072;2023-03-23T14:06:04;99407.67;;;18.03;47.08
77153;BME280;66124;51.146;17.072;2023-03-23T14:08:43;99404.95;;;18.02;47.18
77153;BME280;66124;51.146;17.072;2023-03-23T14:11:19;99404.28;;;18.00;47.15
77153;BME280;66124;51.146;17.072;2023-03-23T14:13:59;99403.38;;;17.92;47.41
77153;BME280;66124;51.146;17.072;2023-03-23T14:16:35;99406.23;;;17.83;47.50